Terminal Aerodrome Forecast
Issued by NWS Cleveland, OH

Home | Current Version | Previous Version | Graphics & Text | Print | Product List | Glossary On
Versions: 1 2 3 4 5 6 7 8 9 10 11 12 13 14 15 16 17 18 19 20 21 22 23 24 25 26 27 28 29 30
000
FTUS41 KCLE 170900 AAA
TAFCLE
TAF AMD
KCLE 170904Z 1709/1812 24006KT P6SM BKN015 OVC025
      TEMPO 1709/1713 28005KT SCT015 OVC025
     FM171400 29007KT P6SM SCT008 OVC015
     FM171900 32008KT P6SM SCT015 BKN025
     FM172100 32007KT P6SM SCT030
     FM180000 VRB03KT P6SM SKC=

USA.gov is the U.S. government's official web portal to all federal, state and local government web resources and services.